메인 페이지
METAR-TAF:

METAR-TAF

공항 :

마이애미 국제공항

마이애미, 플로리다, 미국

위도: 25-47-26N, 경도: 080-18-59W, 고도: 3m

현재 날씨관측

예보는 1 시간 4분 전, 03:53시(UTC)에 발표되었습니다.
10kt
온도 27°C
습도 89%
기압 1019 hPa
시정: 16.1km
고도 2300ft 상공 구름 조금

METAR: KMIA 160353Z 10010KT 10SM FEW023 27/25 A3009 RMK AO2 SLP189 T02720250

시각: 00:57 (04:57 UTC)

예보

예보는 1 시간 50분 전, 03:07시(UTC)에 발표되었습니다.
예보 대상 시간: 16일 03시부터 17일 06시까지 (UTC)
9kt
시정: 10km
고도 2500ft 상공 구름 보통
16일 1500시부터 (UTC)
15kt
시정: 10km
고도 2500ft 상공 구름 보통
17일 0000시부터 (UTC)
11kt
시정: 10km
고도 2500ft 상공 구름 보통

TAF: KMIA 160307Z 1603/1706 10009KT P6SM SCT025 FM161500 10015KT P6SM SCT025 FM170000 09011KT P6SM SCT025

4,000개 이상의 공항 관측 자료 및 예보 (METAR 및 TAF 보고).

지도상에서 검색 가능한 기상관측소가 노란 점과 빨간 점으로 표시되어 있습니다.

기상관측소 명을 보려면 표시 위로 마우스를 이동하세요.

날씨 관측과 예보를 보려면 클릭하세요.

지도 변경 : 확대하려면 엑스 표시가 있는 녹색 버튼, 축소하려면 빼기 표시가 있는 녹색 버튼, 다음 페이지의 지도를 보려면 녹색 화살표를 클릭하세요.


METAR-TAF: